Batavia, Ohio
Current Conditions -  °F | °C
As of 6:53 AM on Tuesday 21 Oct 2014 (Local Time) from KLUK Reporting Station
Few Clouds Few Clouds  
Wind Chill: 50°   Ceiling: Unl
Heat Index: 50°   Visibility: 10mi
Dew Point: 45°   Wind: 9mph
Humidity: 83%   Direction: 310°NW
Pressure: 29.98"   Gusts: NA
Location:  39.08°N, 84.18°W
Report Text: KLUK 211053Z 31008KT 10SM FEW060 10/07 A2998 RMK AO2 SLP150 T01000072
Loading
Personal Weather Stations






























Interactive Weather Map
Tropical Storm Tracking
New forecast layout! Learn more

10-Day Weather Forecast

Advertisements
Track Severe Weather on mobile